CheckWX is a tool to help pilots better visualize weather data.  It is not intended as a substitute for an official pre-flight weather briefing.

05:21:01 UTC

KBEH METAR
Southwest Michigan Regional Airport
Benton Harbor, Michigan, USA
Current

28 mins ago

KBEH 200453Z AUTO 09006KT 10SM CLR M02/M08 A3038 RMK AO2 SLP297 T10221083 400111056
Observed
Feb-20 @ 04:53 UTC
Wind
  • 090° at 6 KTS
Visibility
16,093 meters
Flight Rules
VFR
Cloud Levels
  • Clear skies
Temperature
-2°C / 28°F
Dewpoint
-8°C / 18°F
Humidity
64%
Altimeter
30.38" Hg
Pressure
1029.7 hPa
Previous

1 hour ago

KBEH 200353Z AUTO 08006KT 10SM CLR M02/M09 A3042 RMK AO2 SLP309 T10221089
Observed
Feb-20 @ 03:53 UTC
Wind
  • 080° at 6 KTS
Visibility
16,093 meters
Flight Rules
VFR
Cloud Levels
  • Clear skies
Temperature
-2°C / 28°F
Dewpoint
-9°C / 16°F
Humidity
59%
Altimeter
30.42" Hg
Pressure
1030.9 hPa
Previous

2 hours ago

KBEH 200253Z AUTO 08007KT 10SM CLR M02/M09 A3043 RMK AO2 SLP314 T10221089 58022
Observed
Feb-20 @ 02:53 UTC
Wind
  • 080° at 7 KTS
Visibility
16,093 meters
Flight Rules
VFR
Cloud Levels
  • Clear skies
Temperature
-2°C / 28°F
Dewpoint
-9°C / 16°F
Humidity
59%
Altimeter
30.43" Hg
Pressure
1031.4 hPa